Time;durP1;ratioP1;P1;durP2;ratioP2;P2;SDS_P1;SDS_P2;PMS_P1;PMS_P2;Temp;Humidity;BMP_temperature;BMP_pressure;BME280_temperature;BME280_humidity;BME280_pressure;Samples;Min_cycle;Max_cycle;Signal;HPM_P1;HPM_P2
2024/02/17 00:02:23;;;;;;;6.40;3.90;;;;;;;5.75;73.81;99854.10;105867;1253;72367;-27
2024/02/17 00:04:49;;;;;;;5.50;3.90;;;;;;;6.05;73.51;99856.47;105639;1253;61087;-27
2024/02/17 00:07:17;;;;;;;6.30;4.20;;;;;;;6.50;71.69;99851.13;105663;1255;61183;-27
2024/02/17 00:09:44;;;;;;;6.20;4.50;;;;;;;6.52;71.30;99851.88;105902;1254;72827;-27
2024/02/17 00:12:12;;;;;;;10.80;6.00;;;;;;;6.39;71.51;99850.47;105779;1254;74357;-28
2024/02/17 00:14:39;;;;;;;7.50;5.20;;;;;;;6.23;71.95;99854.39;105889;1254;72341;-27
2024/02/17 00:17:06;;;;;;;6.50;5.10;;;;;;;6.00;72.84;99851.72;105913;1254;61049;-27
2024/02/17 00:19:33;;;;;;;8.10;5.00;;;;;;;6.07;73.20;99850.36;105909;1257;61062;-28
2024/02/17 00:22:00;;;;;;;7.20;4.20;;;;;;;6.53;71.51;99842.86;105886;1254;73606;-27
2024/02/17 00:24:28;;;;;;;8.90;5.60;;;;;;;6.65;70.97;99843.64;105894;1254;74237;-27
2024/02/17 00:26:55;;;;;;;11.40;5.00;;;;;;;6.44;71.29;99839.86;105857;1254;72653;-27
2024/02/17 00:29:22;;;;;;;8.10;4.80;;;;;;;6.30;71.70;99833.86;105827;1254;61144;-27
2024/02/17 00:31:49;;;;;;;13.00;7.90;;;;;;;6.04;72.33;99834.47;105950;1257;61106;-28
2024/02/17 00:34:16;;;;;;;7.10;4.90;;;;;;;5.76;73.96;99835.79;105873;1254;73616;-28
2024/02/17 00:36:44;;;;;;;6.90;4.10;;;;;;;6.37;72.30;99834.70;105583;1259;73498;-26
2024/02/17 00:39:11;;;;;;;10.40;6.60;;;;;;;6.55;71.33;99832.92;105914;1253;73234;-27
2024/02/17 00:41:39;;;;;;;14.60;7.30;;;;;;;6.48;71.26;99832.77;105823;1253;61143;-28
2024/02/17 00:44:06;;;;;;;12.20;7.70;;;;;;;6.29;71.53;99830.06;105568;1259;61238;-27
2024/02/17 00:46:33;;;;;;;9.40;5.60;;;;;;;5.98;72.90;99828.70;105830;1254;73825;-26
2024/02/17 00:49:01;;;;;;;8.30;4.50;;;;;;;5.86;73.47;99827.23;105848;1253;74287;-26
2024/02/17 00:51:28;;;;;;;6.50;4.80;;;;;;;6.21;72.61;99822.44;105621;1254;72329;-26
2024/02/17 00:53:56;;;;;;;17.40;5.40;;;;;;;6.25;72.07;99821.48;105886;1253;61112;-26
2024/02/17 00:56:23;;;;;;;8.30;5.80;;;;;;;5.82;73.21;99819.31;105697;1256;61092;-26
2024/02/17 00:58:50;;;;;;;6.80;4.90;;;;;;;5.50;74.57;99824.14;105815;1254;74349;-26
2024/02/17 01:01:17;;;;;;;7.60;6.10;;;;;;;5.32;75.24;99822.56;105823;1254;74072;-26
2024/02/17 01:03:56;;;;;;;9.90;6.90;;;;;;;5.66;74.38;99815.98;105869;1253;72652;-26
2024/02/17 01:06:24;;;;;;;10.10;6.70;;;;;;;5.53;74.71;99809.69;105627;1254;61160;-26
2024/02/17 01:08:51;;;;;;;5.90;3.60;;;;;;;5.63;74.01;99804.74;105640;1253;61096;-26
2024/02/17 01:11:18;;;;;;;5.60;4.60;;;;;;;5.25;74.98;99800.48;105790;1254;73648;-26
2024/02/17 01:13:46;;;;;;;7.90;4.60;;;;;;;5.20;76.01;99805.89;105624;1254;74349;-26
2024/02/17 01:16:13;;;;;;;6.80;4.70;;;;;;;5.56;74.66;99804.40;105843;1253;72660;-26
2024/02/17 01:18:41;;;;;;;7.10;4.70;;;;;;;5.83;73.66;99799.80;105844;1254;61048;-26
2024/02/17 01:21:09;;;;;;;5.40;3.80;;;;;;;5.79;73.54;99797.41;105875;1252;61157;-25
2024/02/17 01:23:36;;;;;;;8.60;5.00;;;;;;;5.60;74.06;99795.23;105823;1253;73944;-25
2024/02/17 01:26:04;;;;;;;6.00;4.40;;;;;;;5.42;74.66;99794.90;105888;1254;74315;-26
2024/02/17 01:28:31;;;;;;;5.50;3.60;;;;;;;5.74;74.08;99793.15;105500;1259;72646;-26
2024/02/17 01:30:58;;;;;;;9.20;4.30;;;;;;;5.99;73.18;99790.58;105699;1254;61300;-26
2024/02/17 01:33:25;;;;;;;7.80;5.00;;;;;;;5.87;72.91;99784.60;105692;1258;61259;-26
2024/02/17 01:35:54;;;;;;;8.00;4.70;;;;;;;5.62;73.96;99786.20;105529;1254;73838;-27
2024/02/17 01:38:21;;;;;;;6.90;4.30;;;;;;;5.36;74.89;99786.23;105723;1254;74212;-27
2024/02/17 01:40:49;;;;;;;5.90;4.20;;;;;;;5.50;75.10;99783.45;105744;1254;72210;-26
2024/02/17 01:43:16;;;;;;;6.90;4.00;;;;;;;5.90;73.51;99777.58;105423;1259;61173;-26
2024/02/17 01:45:44;;;;;;;8.90;5.10;;;;;;;5.94;72.89;99780.65;105791;1257;61109;-26
2024/02/17 01:48:12;;;;;;;6.90;4.60;;;;;;;5.78;73.51;99782.95;105686;1254;73883;-26
2024/02/17 01:50:40;;;;;;;7.50;4.30;;;;;;;5.50;74.28;99781.58;105724;1254;74151;-26
2024/02/17 01:53:07;;;;;;;9.30;4.40;;;;;;;5.48;74.94;99779.27;105709;1253;72626;-26
2024/02/17 01:55:34;;;;;;;6.70;4.20;;;;;;;5.88;73.84;99778.84;105751;1256;61548;-26
2024/02/17 01:58:04;;;;;;;6.70;4.50;;;;;;;5.99;73.16;99775.38;105646;1258;61164;-26
2024/02/17 02:00:32;;;;;;;6.90;4.30;;;;;;;5.88;73.10;99776.13;105603;1255;73714;-26
2024/02/17 02:03:00;;;;;;;5.40;3.90;;;;;;;5.65;73.76;99778.80;105656;1255;74781;-26
2024/02/17 02:05:27;;;;;;;5.40;3.80;;;;;;;5.33;74.96;99772.09;105801;1256;72443;-26
2024/02/17 02:07:54;;;;;;;7.00;3.70;;;;;;;5.53;75.04;99777.11;105689;1254;61065;-27
2024/02/17 02:10:21;;;;;;;12.70;5.90;;;;;;;5.73;74.14;99774.11;105715;1259;61335;-28
2024/02/17 02:12:48;;;;;;;7.70;5.30;;;;;;;5.58;74.50;99770.19;105946;1254;74079;-26
2024/02/17 02:15:16;;;;;;;7.10;4.60;;;;;;;5.31;75.25;99771.14;105798;1254;74192;-26
2024/02/17 02:17:45;;;;;;;8.20;4.40;;;;;;;5.23;75.46;99766.86;105853;1253;72694;-26
2024/02/17 02:20:12;;;;;;;9.00;4.40;;;;;;;5.27;76.12;99769.63;105589;1259;61149;-26
2024/02/17 02:22:41;;;;;;;7.70;4.10;;;;;;;5.73;74.56;99770.66;105617;1259;61272;-26
2024/02/17 02:25:31;;;;;;;9.40;4.60;;;;;;;5.77;74.01;99772.85;105831;1253;73834;-26
2024/02/17 02:27:58;;;;;;;8.50;5.00;;;;;;;5.53;74.66;99772.17;105805;1254;74102;-26
2024/02/17 02:30:25;;;;;;;6.60;4.20;;;;;;;5.33;75.28;99775.16;105562;1254;72687;-26
2024/02/17 02:32:59;;;;;;;8.10;4.40;;;;;;;5.09;76.22;99773.54;105814;1254;61143;-26
2024/02/17 02:35:26;;;;;;;6.90;3.80;;;;;;;5.38;76.09;99769.58;105670;1257;61144;-26
2024/02/17 02:37:54;;;;;;;9.30;4.80;;;;;;;5.78;74.42;99766.45;105841;1254;73809;-25
2024/02/17 02:40:21;;;;;;;8.80;5.30;;;;;;;5.64;74.54;99764.91;105708;1258;74321;-25
2024/02/17 02:42:48;;;;;;;5.90;4.00;;;;;;;5.49;75.11;99765.10;105913;1254;71459;-25
2024/02/17 02:45:15;;;;;;;9.00;4.90;;;;;;;5.33;75.42;99763.46;105927;1256;61144;-26
2024/02/17 02:47:42;;;;;;;5.80;3.40;;;;;;;5.44;75.35;99762.41;105724;1258;61100;-26
2024/02/17 02:50:10;;;;;;;5.10;3.20;;;;;;;5.92;73.54;99761.98;105891;1254;73828;-26
2024/02/17 02:52:38;;;;;;;7.70;4.40;;;;;;;5.68;73.82;99764.04;105877;1254;74209;-26
2024/02/17 02:55:06;;;;;;;6.70;4.40;;;;;;;5.56;74.31;99758.05;105857;1255;71481;-26
2024/02/17 02:57:33;;;;;;;4.60;3.50;;;;;;;5.19;75.49;99756.02;105700;1259;61112;-26
2024/02/17 03:00:00;;;;;;;6.20;3.50;;;;;;;5.05;77.12;99761.48;105628;1256;61259;-26
2024/02/17 03:02:27;;;;;;;6.80;4.30;;;;;;;5.90;73.98;99761.70;105632;1254;73826;-26
2024/02/17 03:04:55;;;;;;;8.20;5.00;;;;;;;6.22;72.47;99754.95;105641;1259;74000;-26
2024/02/17 03:07:22;;;;;;;10.20;5.70;;;;;;;6.16;72.25;99756.28;105854;1254;73297;-26
2024/02/17 03:09:49;;;;;;;6.60;4.30;;;;;;;5.92;72.87;99752.15;105957;1254;61190;-26
2024/02/17 03:12:16;;;;;;;8.00;4.70;;;;;;;5.60;74.27;99755.77;105570;1259;61183;-26
2024/02/17 03:14:44;;;;;;;7.40;4.20;;;;;;;5.95;73.38;99758.39;105847;1254;73651;-26
2024/02/17 03:17:11;;;;;;;6.30;4.20;;;;;;;5.99;72.77;99755.91;105743;1255;74165;-26
2024/02/17 03:19:38;;;;;;;12.00;5.50;;;;;;;5.86;72.85;99758.30;105892;1254;73236;-26
2024/02/17 03:22:05;;;;;;;6.50;4.10;;;;;;;5.51;73.88;99757.77;105863;1254;61150;-27
2024/02/17 03:24:33;;;;;;;6.20;4.20;;;;;;;4.96;76.23;99757.30;105651;1259;61141;-28
2024/02/17 03:27:00;;;;;;;7.30;4.70;;;;;;;5.27;75.32;99757.55;105778;1257;73681;-28
2024/02/17 03:29:27;;;;;;;6.50;3.20;;;;;;;5.23;74.99;99758.97;105923;1254;74594;-26
2024/02/17 03:31:54;;;;;;;6.90;4.40;;;;;;;5.14;75.07;99756.93;105901;1253;72647;-27
2024/02/17 03:34:21;;;;;;;8.50;5.40;;;;;;;4.92;76.43;99757.11;105786;1254;61083;-28
2024/02/17 03:36:49;;;;;;;4.00;2.80;;;;;;;4.82;77.04;99758.61;105641;1257;61154;-28
2024/02/17 03:39:19;;;;;;;4.90;3.80;;;;;;;5.16;75.91;99750.47;105767;1253;73857;-28
2024/02/17 03:41:46;;;;;;;6.30;3.50;;;;;;;5.22;75.69;99752.27;105770;1254;74322;-28
2024/02/17 03:44:13;;;;;;;3.60;3.20;;;;;;;4.96;76.55;99756.75;105804;1253;72511;-27
2024/02/17 03:46:41;;;;;;;7.50;3.60;;;;;;;4.88;76.95;99754.05;105736;1254;61058;-27
2024/02/17 03:49:09;;;;;;;5.20;3.60;;;;;;;5.37;75.71;99751.71;105802;1256;61173;-27
2024/02/17 03:51:37;;;;;;;5.80;3.90;;;;;;;5.87;73.93;99753.27;105666;1254;73652;-27
2024/02/17 03:54:04;;;;;;;4.50;3.10;;;;;;;5.84;73.54;99757.54;105676;1254;74360;-28
2024/02/17 03:56:31;;;;;;;3.60;2.70;;;;;;;5.48;73.69;99756.72;105885;1254;72575;-27
2024/02/17 03:58:58;;;;;;;3.40;2.50;;;;;;;5.29;74.34;99749.88;105893;1254;61058;-27
2024/02/17 04:01:26;;;;;;;3.70;2.10;;;;;;;5.05;74.99;99745.33;105839;1257;61144;-27
2024/02/17 04:03:53;;;;;;;3.90;2.30;;;;;;;5.50;73.76;99734.55;105768;1254;73838;-27
2024/02/17 04:06:21;;;;;;;3.70;2.60;;;;;;;5.64;73.04;99739.73;105503;1259;74355;-27
2024/02/17 04:08:48;;;;;;;4.70;2.80;;;;;;;5.47;73.01;99739.85;105460;1258;71654;-28
2024/02/17 04:11:15;;;;;;;5.50;3.10;;;;;;;5.24;73.88;99734.27;105607;1253;61141;-27
2024/02/17 04:13:42;;;;;;;4.00;2.70;;;;;;;4.68;76.09;99736.01;105681;1259;61113;-27
2024/02/17 04:16:10;;;;;;;5.00;2.40;;;;;;;4.94;75.93;99737.59;105933;1254;74369;-27
2024/02/17 04:18:37;;;;;;;4.40;2.80;;;;;;;5.33;74.07;99735.58;105884;1254;74056;-27
2024/02/17 04:21:04;;;;;;;4.00;2.60;;;;;;;5.50;73.51;99739.23;105710;1254;72629;-27
2024/02/17 04:23:32;;;;;;;4.60;3.10;;;;;;;5.52;73.00;99740.17;105706;1254;61068;-27
2024/02/17 04:26:03;;;;;;;5.20;2.50;;;;;;;5.28;73.77;99737.36;105703;1259;61160;-27
2024/02/17 04:28:30;;;;;;;3.80;2.20;;;;;;;5.04;74.73;99737.64;105822;1257;73785;-27
2024/02/17 04:30:57;;;;;;;2.60;2.10;;;;;;;5.25;74.75;99738.69;105866;1254;74333;-27
2024/02/17 04:33:24;;;;;;;2.60;1.90;;;;;;;5.27;74.28;99741.38;105888;1253;72668;-27
2024/02/17 04:35:53;;;;;;;4.30;2.80;;;;;;;5.14;74.39;99739.05;105690;1254;61067;-28
2024/02/17 04:38:20;;;;;;;6.00;3.70;;;;;;;5.06;74.52;99745.82;105574;1257;61094;-27
2024/02/17 04:40:47;;;;;;;7.10;4.10;;;;;;;4.65;76.00;99744.57;105850;1254;74410;-27
2024/02/17 04:43:15;;;;;;;4.80;2.90;;;;;;;4.88;75.96;99747.14;105917;1255;74762;-27
2024/02/17 04:45:42;;;;;;;4.20;2.60;;;;;;;5.35;74.23;99740.44;105885;1256;72671;-27
2024/02/17 04:48:09;;;;;;;3.90;2.40;;;;;;;5.30;73.97;99739.65;105811;1254;61187;-27
2024/02/17 04:50:36;;;;;;;4.90;3.10;;;;;;;5.12;74.57;99743.46;105789;1256;61128;-27
2024/02/17 04:53:04;;;;;;;5.10;2.70;;;;;;;4.67;76.06;99738.45;105851;1254;74378;-27
2024/02/17 04:55:32;;;;;;;2.60;1.90;;;;;;;4.95;75.67;99736.65;105704;1254;74406;-27
2024/02/17 04:58:00;;;;;;;3.30;2.30;;;;;;;5.27;73.70;99727.91;105860;1256;72422;-27
2024/02/17 05:00:27;;;;;;;3.50;2.20;;;;;;;4.97;74.71;99727.80;105699;1254;61093;-27
2024/02/17 05:02:54;;;;;;;2.90;2.10;;;;;;;4.85;74.95;99728.86;105632;1256;61091;-27
2024/02/17 05:05:21;;;;;;;4.10;2.40;;;;;;;4.81;74.89;99730.80;105656;1254;74332;-27
2024/02/17 05:07:48;;;;;;;3.10;2.20;;;;;;;5.06;74.29;99723.27;105567;1259;74166;-28
2024/02/17 05:10:15;;;;;;;4.50;2.80;;;;;;;5.13;73.59;99730.50;105880;1257;73164;-27
2024/02/17 05:12:42;;;;;;;3.10;2.10;;;;;;;4.97;74.11;99729.50;105807;1254;61091;-27
2024/02/17 05:15:10;;;;;;;3.70;2.70;;;;;;;4.70;74.77;99728.35;105603;1259;61112;-27
2024/02/17 05:17:37;;;;;;;4.30;2.20;;;;;;;4.36;76.58;99729.89;105744;1254;73819;-27
2024/02/17 05:20:06;;;;;;;2.40;1.60;;;;;;;4.68;76.34;99733.80;105829;1254;74220;-27
2024/02/17 05:22:33;;;;;;;5.00;2.80;;;;;;;5.05;74.53;99733.63;105731;1254;71470;-27
2024/02/17 05:25:00;;;;;;;4.30;2.30;;;;;;;5.11;73.96;99733.83;105905;1253;61226;-27
2024/02/17 05:27:27;;;;;;;3.40;2.60;;;;;;;4.72;75.23;99741.73;105861;1257;61199;-27
2024/02/17 05:29:54;;;;;;;3.60;1.80;;;;;;;4.87;75.25;99742.88;105941;1254;73529;-28
2024/02/17 05:32:21;;;;;;;3.30;2.50;;;;;;;5.14;74.22;99744.73;105914;1257;74390;-27
2024/02/17 05:34:48;;;;;;;3.50;2.30;;;;;;;5.29;73.55;99743.48;105863;1254;72614;-27
2024/02/17 05:37:15;;;;;;;2.80;1.60;;;;;;;4.98;74.43;99747.05;105656;1254;61255;-27
2024/02/17 05:39:42;;;;;;;3.20;1.90;;;;;;;4.89;74.71;99747.79;105683;1257;61093;-27
2024/02/17 05:42:09;;;;;;;3.20;2.30;;;;;;;4.84;75.52;99750.77;105802;1254;73852;-27
2024/02/17 05:44:37;;;;;;;3.20;2.50;;;;;;;5.06;74.83;99755.42;105680;1254;74320;-28
2024/02/17 05:47:04;;;;;;;5.40;3.40;;;;;;;5.17;74.26;99759.39;105838;1257;72614;-27
2024/02/17 05:49:32;;;;;;;6.20;3.00;;;;;;;5.01;74.63;99756.88;105809;1257;61140;-28
2024/02/17 05:51:59;;;;;;;5.70;3.90;;;;;;;4.48;76.94;99758.77;105714;1254;61106;-27
2024/02/17 05:54:26;;;;;;;3.00;1.90;;;;;;;4.47;76.92;99759.69;105761;1255;73881;-27
2024/02/17 05:56:53;;;;;;;2.20;1.70;;;;;;;5.21;74.39;99757.33;105762;1256;74445;-28
2024/02/17 05:59:20;;;;;;;6.50;2.60;;;;;;;5.42;73.31;99753.88;105870;1254;72606;-27
2024/02/17 06:01:47;;;;;;;6.40;2.60;;;;;;;5.43;73.12;99751.44;105777;1254;61097;-27
2024/02/17 06:04:15;;;;;;;5.40;2.90;;;;;;;4.94;74.95;99752.92;105508;1257;61108;-27
2024/02/17 06:06:42;;;;;;;2.70;2.30;;;;;;;5.10;75.68;99749.73;105905;1254;73737;-27
2024/02/17 06:09:09;;;;;;;4.80;2.70;;;;;;;5.70;73.39;99747.86;105842;1254;74336;-27
2024/02/17 06:11:37;;;;;;;3.70;2.30;;;;;;;5.72;73.02;99747.78;105662;1257;72340;-27
2024/02/17 06:14:05;;;;;;;3.60;2.40;;;;;;;5.39;73.93;99749.39;105612;1254;61204;-27
2024/02/17 06:16:32;;;;;;;6.80;2.50;;;;;;;5.04;75.41;99752.61;105900;1257;61103;-26
2024/02/17 06:21:45;;;;;;;5.50;3.40;;;;;;;5.24;75.64;99747.17;105866;1258;74861;-27
2024/02/17 06:24:12;;;;;;;7.10;4.80;;;;;;;5.39;74.58;99746.63;105833;1255;73183;-27
2024/02/17 06:26:39;;;;;;;7.90;3.80;;;;;;;5.05;75.11;99749.12;105627;1254;61048;-27
2024/02/17 06:29:06;;;;;;;5.70;3.20;;;;;;;5.09;74.56;99745.46;105736;1266;61198;-27
2024/02/17 06:31:34;;;;;;;6.80;3.40;;;;;;;4.90;75.77;99748.63;105609;1254;73777;-27
2024/02/17 06:34:06;;;;;;;6.40;4.50;;;;;;;5.84;72.46;99745.82;105727;1258;74171;-27
2024/02/17 06:36:36;;;;;;;12.50;7.10;;;;;;;5.51;72.49;99738.14;105735;1257;72736;-27
2024/02/17 06:39:03;;;;;;;6.10;3.90;;;;;;;5.44;72.74;99737.10;105815;1256;61252;-27
2024/02/17 06:41:31;;;;;;;9.70;5.70;;;;;;;5.12;73.54;99736.20;105886;1257;61157;-28
2024/02/17 06:43:58;;;;;;;9.40;5.70;;;;;;;5.06;74.14;99731.36;105680;1254;73807;-26
2024/02/17 06:46:26;;;;;;;5.70;4.00;;;;;;;5.56;72.95;99727.02;105748;1256;74970;-26
2024/02/17 06:48:53;;;;;;;6.80;5.00;;;;;;;5.80;71.66;99719.46;105826;1257;72407;-26
2024/02/17 06:51:22;;;;;;;7.40;4.50;;;;;;;5.91;71.17;99722.05;105563;1257;61023;-26
2024/02/17 06:53:49;;;;;;;11.10;6.70;;;;;;;5.25;72.99;99714.77;105596;1260;61147;-27
2024/02/17 06:56:16;;;;;;;6.70;4.50;;;;;;;5.65;72.38;99723.97;105893;1255;73566;-27
2024/02/17 06:58:44;;;;;;;9.90;5.60;;;;;;;6.20;70.11;99720.38;105923;1256;74414;-27
2024/02/17 07:01:11;;;;;;;9.10;5.70;;;;;;;5.98;70.73;99722.68;105708;1258;72585;-27
2024/02/17 07:03:38;;;;;;;6.80;4.10;;;;;;;5.30;72.89;99719.02;105855;1257;61053;-27
2024/02/17 07:06:05;;;;;;;9.70;6.10;;;;;;;5.21;73.48;99720.12;105613;1259;61717;-27
2024/02/17 07:08:33;;;;;;;9.80;6.40;;;;;;;5.41;73.49;99731.36;105664;1254;73811;-27
2024/02/17 07:11:00;;;;;;;7.40;4.20;;;;;;;5.81;72.09;99731.33;105665;1259;73293;-27
2024/02/17 07:13:28;;;;;;;8.00;4.50;;;;;;;5.94;71.09;99725.98;105733;1260;72722;-27
2024/02/17 07:15:55;;;;;;;5.10;4.10;;;;;;;5.45;72.75;99735.30;105685;1259;61089;-27
2024/02/17 07:18:23;;;;;;;5.10;3.10;;;;;;;5.07;74.52;99732.33;105889;1254;61096;-27
2024/02/17 07:20:50;;;;;;;9.10;6.40;;;;;;;5.53;73.81;99731.67;105848;1254;73846;-27
2024/02/17 07:23:23;;;;;;;7.60;5.30;;;;;;;5.46;73.39;99726.48;105795;1257;74251;-27
2024/02/17 07:25:51;;;;;;;6.10;4.80;;;;;;;5.76;72.78;99725.69;105493;1259;72609;-27
2024/02/17 07:28:19;;;;;;;5.40;3.80;;;;;;;5.50;73.46;99725.10;105632;1256;61102;-27
2024/02/17 07:30:46;;;;;;;13.50;6.30;;;;;;;5.40;74.01;99724.54;105850;1256;61194;-27
2024/02/17 07:33:14;;;;;;;7.70;3.80;;;;;;;5.76;72.91;99725.69;105858;1257;74517;-27
2024/02/17 07:35:44;;;;;;;8.50;3.90;;;;;;;5.76;72.00;99723.29;105568;1259;74113;-27
2024/02/17 07:38:13;;;;;;;5.00;3.30;;;;;;;5.40;72.97;99730.38;105508;1255;72420;-27
2024/02/17 07:40:41;;;;;;;5.70;3.60;;;;;;;5.32;73.67;99723.92;105811;1256;61102;-27
2024/02/17 07:43:08;;;;;;;7.40;3.70;;;;;;;5.20;73.57;99723.11;105839;1254;61051;-27
2024/02/17 07:45:36;;;;;;;5.60;3.10;;;;;;;5.48;72.63;99724.83;105914;1256;73884;-27
2024/02/17 07:48:04;;;;;;;6.50;3.00;;;;;;;5.92;71.12;99726.96;105685;1267;74116;-27
2024/02/17 07:50:32;;;;;;;6.50;3.60;;;;;;;5.47;72.47;99725.91;105732;1260;71663;-27
2024/02/17 07:52:59;;;;;;;6.70;3.50;;;;;;;5.26;73.23;99724.17;105732;1257;61045;-27
2024/02/17 07:55:26;;;;;;;7.60;4.40;;;;;;;5.03;73.95;99714.59;105768;1260;61150;-27
2024/02/17 07:57:53;;;;;;;7.00;3.50;;;;;;;5.42;72.82;99721.34;105749;1260;74403;-27
2024/02/17 08:00:21;;;;;;;6.10;3.40;;;;;;;5.49;72.16;99717.95;105854;1256;74148;-27
2024/02/17 08:02:50;;;;;;;4.60;2.50;;;;;;;5.10;73.25;99717.20;105654;1260;72673;-27
2024/02/17 08:05:18;;;;;;;6.20;3.00;;;;;;;5.09;73.18;99716.23;105517;1265;61227;-27
2024/02/17 08:07:45;;;;;;;5.50;3.30;;;;;;;5.28;72.71;99718.39;105653;1259;61173;-27
2024/02/17 08:10:12;;;;;;;3.90;2.30;;;;;;;5.85;70.90;99717.16;105711;1254;73728;-27
2024/02/17 08:12:40;;;;;;;4.40;2.40;;;;;;;5.45;71.46;99720.02;105740;1261;74146;-27
2024/02/17 08:15:08;;;;;;;4.80;2.70;;;;;;;5.31;72.21;99727.76;105755;1256;72786;-27
2024/02/17 08:17:35;;;;;;;4.80;3.20;;;;;;;5.13;73.34;99725.86;105875;1256;61161;-27
2024/02/17 08:20:03;;;;;;;5.40;2.60;;;;;;;5.60;72.26;99719.59;105827;1257;61090;-27
2024/02/17 08:22:32;;;;;;;7.40;4.20;;;;;;;5.65;71.12;99718.31;105562;1260;73796;-27
2024/02/17 08:25:03;;;;;;;7.60;4.70;;;;;;;5.50;71.05;99712.85;105892;1257;74270;-27
2024/02/17 08:27:34;;;;;;;6.00;3.40;;;;;;;5.42;71.16;99716.02;105682;1260;72528;-27
2024/02/17 08:30:03;;;;;;;7.60;4.90;;;;;;;5.24;72.08;99714.67;105663;1255;61102;-27
2024/02/17 08:32:32;;;;;;;6.40;3.40;;;;;;;5.27;72.37;99718.30;105653;1263;61173;-28
2024/02/17 08:34:59;;;;;;;6.60;3.00;;;;;;;5.29;72.05;99721.49;105752;1258;73733;-27
2024/02/17 08:37:27;;;;;;;4.80;3.60;;;;;;;5.38;72.41;99723.26;105887;1256;74180;-27
2024/02/17 08:39:54;;;;;;;4.50;3.10;;;;;;;5.15;72.97;99720.59;105815;1257;72677;-27
2024/02/17 08:42:22;;;;;;;5.70;3.80;;;;;;;5.27;72.64;99719.35;105850;1257;61042;-27
2024/02/17 08:44:52;;;;;;;3.70;2.40;;;;;;;5.63;71.91;99719.08;105661;1257;61054;-27
2024/02/17 08:47:21;;;;;;;3.50;2.60;;;;;;;6.18;69.76;99711.03;105644;1259;74542;-27
2024/02/17 08:49:49;;;;;;;4.90;4.10;;;;;;;5.95;69.83;99706.48;105899;1259;73302;-28
2024/02/17 08:52:16;;;;;;;5.90;3.80;;;;;;;5.88;70.92;99704.56;105722;1257;72426;-27
2024/02/17 08:54:43;;;;;;;4.20;2.80;;;;;;;5.74;70.82;99698.59;105884;1254;61233;-27
2024/02/17 08:57:10;;;;;;;4.10;2.70;;;;;;;5.73;71.27;99710.86;105799;1256;61178;-27
2024/02/17 08:59:37;;;;;;;5.90;3.70;;;;;;;6.28;69.49;99711.70;105587;1254;73652;-27
2024/02/17 09:02:04;;;;;;;5.20;3.70;;;;;;;6.31;69.18;99713.08;105586;1259;74163;-27
2024/02/17 09:04:32;;;;;;;8.20;4.70;;;;;;;6.31;68.59;99705.83;105701;1256;71509;-27
2024/02/17 09:06:59;;;;;;;7.30;3.60;;;;;;;5.63;71.08;99706.23;105903;1252;61165;-27
2024/02/17 09:09:28;;;;;;;5.90;3.30;;;;;;;5.43;72.41;99712.71;105757;1260;61230;-27
2024/02/17 09:11:55;;;;;;;6.30;3.50;;;;;;;6.02;71.50;99710.29;105705;1258;73750;-27
2024/02/17 09:14:22;;;;;;;10.70;5.50;;;;;;;5.98;70.76;99708.90;105800;1260;74283;-27
2024/02/17 09:16:51;;;;;;;7.30;4.90;;;;;;;5.49;71.64;99702.09;105669;1259;72729;-27
2024/02/17 09:19:18;;;;;;;3.70;2.90;;;;;;;5.29;71.68;99695.65;105747;1257;60984;-27
2024/02/17 09:21:45;;;;;;;4.10;2.90;;;;;;;5.24;72.70;99701.20;105846;1263;61137;-27
2024/02/17 09:24:18;;;;;;;4.50;3.50;;;;;;;5.70;71.23;99698.08;105677;1258;73695;-27
2024/02/17 09:26:46;;;;;;;6.00;3.40;;;;;;;5.79;70.19;99693.52;105706;1259;74207;-27
2024/02/17 09:29:14;;;;;;;3.50;2.10;;;;;;;5.86;69.97;99697.79;105701;1260;72719;-27
2024/02/17 09:31:41;;;;;;;5.80;3.70;;;;;;;5.58;70.83;99696.64;105844;1257;61140;-26
2024/02/17 09:34:08;;;;;;;4.60;2.10;;;;;;;5.63;71.24;99699.66;105851;1258;61100;-27
2024/02/17 09:36:36;;;;;;;7.90;3.30;;;;;;;5.63;71.57;99699.30;105885;1257;73903;-27
2024/02/17 09:39:03;;;;;;;7.80;5.30;;;;;;;6.12;70.07;99695.95;105654;1255;74370;-27
2024/02/17 09:41:30;;;;;;;5.30;3.00;;;;;;;6.05;69.79;99689.42;105830;1254;71534;-28
2024/02/17 09:43:58;;;;;;;4.10;2.50;;;;;;;5.99;70.14;99691.48;105600;1254;61159;-26
2024/02/17 09:46:26;;;;;;;3.30;2.50;;;;;;;5.56;70.02;99683.99;105683;1257;61246;-26
2024/02/17 09:49:00;;;;;;;4.40;2.30;;;;;;;5.28;71.44;99684.15;105701;1259;73664;-26
2024/02/17 09:51:31;;;;;;;8.80;2.90;;;;;;;5.47;71.41;99681.50;105700;1260;73118;-26
2024/02/17 09:53:59;;;;;;;7.30;1.90;;;;;;;6.07;69.93;99686.23;105735;1257;71464;-26
2024/02/17 09:56:27;;;;;;;5.60;2.90;;;;;;;6.13;68.58;99675.41;105692;1259;61075;-26
2024/02/17 09:58:54;;;;;;;7.20;3.80;;;;;;;5.88;68.64;99678.57;105718;1253;61104;-26
2024/02/17 10:01:26;;;;;;;5.50;3.10;;;;;;;5.86;68.41;99672.80;105742;1259;73823;-26
2024/02/17 10:03:54;;;;;;;4.50;3.40;;;;;;;5.62;69.42;99673.52;105729;1260;74051;-26
2024/02/17 10:06:21;;;;;;;5.90;3.20;;;;;;;5.38;70.89;99670.05;105706;1256;73730;-26
2024/02/17 10:08:49;;;;;;;5.30;2.90;;;;;;;5.82;69.48;99661.27;105760;1257;61321;-26
2024/02/17 10:11:16;;;;;;;6.90;4.70;;;;;;;5.59;70.17;99665.72;105831;1254;61078;-27
2024/02/17 10:13:44;;;;;;;8.10;3.40;;;;;;;5.79;70.09;99662.46;105726;1256;75131;-26
2024/02/17 10:16:12;;;;;;;4.60;3.00;;;;;;;5.52;70.61;99662.97;105605;1264;76210;-27
2024/02/17 10:18:47;;;;;;;5.70;3.10;;;;;;;5.50;71.49;99662.23;105489;1257;73291;-26
2024/02/17 10:21:15;;;;;;;6.00;3.30;;;;;;;5.37;71.85;99652.72;105717;1270;61138;-26
2024/02/17 10:23:42;;;;;;;4.70;3.20;;;;;;;5.61;71.38;99655.51;105875;1262;62174;-26
2024/02/17 10:26:10;;;;;;;5.50;3.30;;;;;;;5.91;70.01;99648.76;105647;1257;75768;-26
2024/02/17 10:28:37;;;;;;;7.20;4.80;;;;;;;5.74;70.52;99647.42;105700;1259;74077;-26
2024/02/17 10:31:04;;;;;;;7.20;4.20;;;;;;;5.52;71.19;99649.77;105863;1254;74484;-26
2024/02/17 10:33:31;;;;;;;4.00;3.30;;;;;;;5.47;71.40;99645.15;105679;1254;61220;-26
2024/02/17 10:36:00;;;;;;;4.80;3.40;;;;;;;5.74;70.88;99644.83;105862;1263;61151;-26
2024/02/17 10:38:28;;;;;;;6.90;3.50;;;;;;;5.97;70.12;99645.04;105931;1257;74581;-26
2024/02/17 10:40:55;;;;;;;5.00;3.10;;;;;;;5.58;71.02;99645.98;105894;1254;74833;-26
2024/02/17 10:43:22;;;;;;;5.90;3.70;;;;;;;5.61;70.88;99646.72;105887;1256;72507;-26
2024/02/17 10:45:52;;;;;;;7.40;3.90;;;;;;;5.51;70.96;99647.73;105833;1253;61058;-26
2024/02/17 10:48:19;;;;;;;7.80;4.10;;;;;;;5.92;70.07;99643.55;105511;1252;61146;-26
2024/02/17 10:50:48;;;;;;;9.20;3.80;;;;;;;5.77;69.78;99645.37;105567;1254;73726;-27
2024/02/17 10:53:26;;;;;;;8.20;3.90;;;;;;;5.86;69.01;99642.67;105503;1260;74632;-27
2024/02/17 10:55:54;;;;;;;4.90;3.00;;;;;;;5.84;69.20;99645.16;105592;1258;72698;-26
2024/02/17 10:58:21;;;;;;;5.50;3.50;;;;;;;5.55;69.95;99640.43;105706;1252;61226;-26
2024/02/17 11:00:49;;;;;;;6.30;2.80;;;;;;;5.70;69.71;99632.27;105648;1258;61143;-26
2024/02/17 11:03:25;;;;;;;5.40;3.40;;;;;;;5.91;69.19;99622.95;105771;1254;73823;-27
2024/02/17 11:05:55;;;;;;;7.70;4.70;;;;;;;6.05;68.74;99628.59;105389;1257;73454;-26
2024/02/17 11:08:22;;;;;;;9.20;4.00;;;;;;;5.50;70.45;99624.35;105619;1255;71265;-26
2024/02/17 11:10:50;;;;;;;5.00;2.50;;;;;;;5.38;70.87;99621.50;105692;1254;61111;-26
2024/02/17 11:13:26;;;;;;;4.50;2.90;;;;;;;5.16;71.91;99619.84;105694;1258;61697;-26
2024/02/17 11:16:04;;;;;;;4.80;2.90;;;;;;;5.62;70.83;99618.19;105735;1254;75412;-27
2024/02/17 11:18:35;;;;;;;5.70;4.00;;;;;;;5.67;70.21;99615.38;105694;1260;74251;-26
2024/02/17 11:21:04;;;;;;;3.80;2.50;;;;;;;5.75;70.01;99610.84;105664;1257;71548;-26
2024/02/17 11:23:41;;;;;;;6.30;2.60;;;;;;;5.65;70.31;99615.14;105697;1260;61231;-26
2024/02/17 11:26:15;;;;;;;6.20;3.30;;;;;;;5.57;70.54;99614.01;105700;1255;61103;-27
2024/02/17 11:29:03;;;;;;;5.00;3.00;;;;;;;5.67;71.29;99613.15;105727;1259;73641;-26
2024/02/17 11:31:30;;;;;;;6.30;3.00;;;;;;;6.09;70.01;99614.59;105575;1254;74194;-26
2024/02/17 11:34:02;;;;;;;7.40;4.70;;;;;;;5.97;69.91;99621.76;105644;1255;72650;-26
2024/02/17 11:36:31;;;;;;;7.50;3.50;;;;;;;5.67;70.72;99616.06;105562;1260;61173;-26
2024/02/17 11:38:59;;;;;;;5.60;3.80;;;;;;;5.93;70.85;99615.77;105724;1254;61100;-26
2024/02/17 11:41:30;;;;;;;5.80;3.50;;;;;;;5.65;71.78;99615.27;105553;1255;303293;-26